createdAt,value
2019-04-04T00:00:16.246Z,98575.28
2019-04-04T00:01:20.532Z,98587.45
2019-04-04T00:01:56.907Z,98577.36
2019-04-04T00:02:32.435Z,98577.36
2019-04-04T00:03:08.578Z,98572.55
2019-04-04T00:03:44.104Z,98565.84
2019-04-04T00:04:21.792Z,98570.63
2019-04-04T00:04:57.832Z,98560.20
2019-04-04T00:05:33.715Z,98563.58
2019-04-04T00:06:09.466Z,98552.93
2019-04-04T00:06:44.921Z,98559.85
2019-04-04T00:07:20.347Z,98561.23
2019-04-04T00:07:55.770Z,98554.09
2019-04-04T00:08:32.087Z,98561.91
2019-04-04T00:09:10.404Z,98567.55
2019-04-04T00:09:45.917Z,98567.55
2019-04-04T00:10:21.565Z,98563.85
2019-04-04T00:10:56.988Z,98566.36
2019-04-04T00:11:32.647Z,98563.97
2019-04-04T00:12:08.667Z,98562.39
2019-04-04T00:12:44.649Z,98565.70
2019-04-04T00:13:20.293Z,98565.20
2019-04-04T00:13:55.771Z,98568.09
2019-04-04T00:14:31.186Z,98568.03
2019-04-04T00:15:06.746Z,98577.72
2019-04-04T00:15:45.358Z,98570.98
2019-04-04T00:16:20.230Z,98570.98
2019-04-04T00:16:55.726Z,98572.20
2019-04-04T00:17:31.198Z,98567.91
2019-04-04T00:18:06.930Z,98574.89
2019-04-04T00:18:42.483Z,98575.06
2019-04-04T00:19:17.929Z,98571.78
2019-04-04T00:19:53.356Z,98569.93
2019-04-04T00:20:31.511Z,98578.34
2019-04-04T00:21:05.901Z,98571.49
2019-04-04T00:21:41.377Z,98572.33
2019-04-04T00:22:17.204Z,98576.02
2019-04-04T00:22:52.646Z,98576.23
2019-04-04T00:23:28.512Z,98572.17
2019-04-04T00:24:04.224Z,98575.67
2019-04-04T00:24:39.952Z,98581.69
2019-04-04T00:25:15.711Z,98573.67
2019-04-04T00:25:51.130Z,98577.78
2019-04-04T00:26:26.565Z,98580.25
2019-04-04T00:27:01.979Z,98559.56
2019-04-04T00:27:37.505Z,98559.56
2019-04-04T00:28:15.024Z,98565.08
2019-04-04T00:28:50.767Z,98565.81
2019-04-04T00:29:26.221Z,98565.81
2019-04-04T00:30:01.798Z,98572.86
2019-04-04T00:30:37.495Z,98582.38
2019-04-04T00:31:13.102Z,98582.76
2019-04-04T00:31:49.866Z,98577.33
2019-04-04T00:32:26.033Z,98583.68
2019-04-04T00:33:01.560Z,98583.68
2019-04-04T00:33:36.945Z,98575.90
2019-04-04T00:34:13.855Z,98577.57
2019-04-04T00:34:49.713Z,98577.57
2019-04-04T00:35:25.230Z,98585.86
2019-04-04T00:36:02.635Z,98579.83
2019-04-04T00:36:38.165Z,98579.83
2019-04-04T00:37:13.909Z,98585.02
2019-04-04T00:37:49.344Z,98580.64
2019-04-04T00:38:24.778Z,98583.27
2019-04-04T00:39:00.200Z,98580.64
2019-04-04T00:39:36.113Z,98581.52
2019-04-04T00:40:11.893Z,98581.52
2019-04-04T00:40:47.582Z,98578.05
2019-04-04T00:41:23.156Z,98573.86
2019-04-04T00:41:58.585Z,98567.48
2019-04-04T00:42:34.022Z,98570.44
2019-04-04T00:43:09.446Z,98571.66
2019-04-04T00:43:45.253Z,98576.34
2019-04-04T00:44:21.027Z,98571.67
2019-04-04T00:44:57.779Z,98567.25
2019-04-04T00:45:33.676Z,98561.42
2019-04-04T00:46:09.167Z,98561.42
2019-04-04T00:46:44.612Z,98556.00
2019-04-04T00:47:20.011Z,98556.00
2019-04-04T00:47:55.533Z,98567.04
2019-04-04T00:48:32.245Z,98559.80
2019-04-04T00:49:08.434Z,98563.88
2019-04-04T00:49:44.474Z,98572.04
2019-04-04T00:50:20.620Z,98572.04
2019-04-04T00:50:56.472Z,98576.92
2019-04-04T00:51:32.094Z,98573.66
2019-04-04T00:52:10.041Z,98578.73
2019-04-04T00:52:44.692Z,98572.27
2019-04-04T00:53:20.096Z,98570.98
2019-04-04T00:53:55.894Z,98570.98
2019-04-04T00:54:31.287Z,98570.77
2019-04-04T00:55:07.344Z,98572.55
2019-04-04T00:55:42.779Z,98574.00
2019-04-04T00:56:18.809Z,98570.53
2019-04-04T00:56:54.693Z,98567.10
2019-04-04T00:57:30.434Z,98567.10
2019-04-04T00:58:05.851Z,98562.11
2019-04-04T00:58:41.448Z,98560.52
2019-04-04T00:59:16.894Z,98564.58
2019-04-04T00:59:53.640Z,98564.58
2019-04-04T01:00:29.397Z,98572.17
2019-04-04T01:01:04.885Z,98570.00
2019-04-04T01:01:40.656Z,98572.66
2019-04-04T01:02:16.097Z,98573.16
2019-04-04T01:02:51.632Z,98574.27
2019-04-04T01:03:29.758Z,98567.14
2019-04-04T01:04:04.257Z,98556.55
2019-04-04T01:04:39.713Z,98557.98
2019-04-04T01:05:15.483Z,98559.20
2019-04-04T01:05:51.105Z,98562.22
2019-04-04T01:06:26.517Z,98564.69
2019-04-04T01:07:03.034Z,98566.81
2019-04-04T01:07:39.402Z,98570.66
2019-04-04T01:08:14.895Z,98572.77
2019-04-04T01:08:50.300Z,98572.77
2019-04-04T01:09:25.712Z,98570.98
2019-04-04T01:10:01.402Z,98570.98
2019-04-04T01:10:37.389Z,98574.50
2019-04-04T01:11:13.232Z,98569.94
2019-04-04T01:11:51.123Z,98565.86
2019-04-04T01:12:26.552Z,98561.86
2019-04-04T01:13:02.303Z,98559.20
2019-04-04T01:13:37.733Z,98551.91
2019-04-04T01:14:13.176Z,98554.06
2019-04-04T01:14:48.606Z,98553.92
2019-04-04T01:15:24.014Z,98552.43
2019-04-04T01:16:02.513Z,98552.43
2019-04-04T01:16:36.906Z,98557.38
2019-04-04T01:17:12.449Z,98554.05
2019-04-04T01:17:47.907Z,98562.50
2019-04-04T01:18:23.344Z,98559.94
2019-04-04T01:18:58.864Z,98562.80
2019-04-04T01:19:34.287Z,98562.80
2019-04-04T01:20:10.733Z,98556.28
2019-04-04T01:20:46.260Z,98556.28
2019-04-04T01:21:22.243Z,98547.51
2019-04-04T01:21:58.796Z,98548.34
2019-04-04T01:22:34.215Z,98545.06
2019-04-04T01:23:09.674Z,98541.26
2019-04-04T01:23:45.221Z,98541.55
2019-04-04T01:24:20.882Z,98531.03
2019-04-04T01:24:56.296Z,98531.03
2019-04-04T01:25:32.791Z,98521.86
2019-04-04T01:26:08.501Z,98515.84
2019-04-04T01:26:43.970Z,98508.48
2019-04-04T01:27:19.413Z,98508.48
2019-04-04T01:27:54.819Z,98505.69
2019-04-04T01:28:30.245Z,98471.31
2019-04-04T01:29:06.084Z,98508.72
2019-04-04T01:29:41.612Z,98508.72
2019-04-04T01:30:17.261Z,98521.37
2019-04-04T01:30:52.856Z,98511.33
2019-04-04T01:31:28.381Z,98509.38
2019-04-04T01:32:03.904Z,98510.55
2019-04-04T01:32:39.366Z,98507.33
2019-04-04T01:33:14.843Z,98504.02
2019-04-04T01:33:51.672Z,98509.59
2019-04-04T01:34:27.608Z,98509.59
2019-04-04T01:35:03.080Z,98505.94
2019-04-04T01:35:38.510Z,98511.17
2019-04-04T01:36:14.313Z,98498.18
2019-04-04T01:36:49.745Z,98509.59
2019-04-04T01:37:27.163Z,98507.16
2019-04-04T01:38:02.682Z,98507.27
2019-04-04T01:38:38.556Z,98506.16
2019-04-04T01:39:14.011Z,98504.53
2019-04-04T01:39:49.436Z,98497.17
2019-04-04T01:40:24.950Z,98501.96
2019-04-04T01:41:03.970Z,98501.96
2019-04-04T01:41:37.477Z,98498.30
2019-04-04T01:42:13.075Z,98502.80
2019-04-04T01:42:48.639Z,98502.80
2019-04-04T01:43:24.088Z,98500.63
2019-04-04T01:44:04.995Z,98496.12
2019-04-04T01:44:36.702Z,98490.76
2019-04-04T01:45:13.079Z,98489.92
2019-04-04T01:45:49.190Z,98484.92
2019-04-04T01:46:24.895Z,98489.66
2019-04-04T01:47:00.321Z,98483.91
2019-04-04T01:47:35.740Z,98488.98
2019-04-04T01:48:11.510Z,98488.53
2019-04-04T01:48:49.698Z,98485.07
2019-04-04T01:49:24.102Z,98483.02
2019-04-04T01:49:59.534Z,98479.95
2019-04-04T01:50:34.948Z,98476.61
2019-04-04T01:51:10.477Z,98476.61
2019-04-04T01:51:45.986Z,98478.22
2019-04-04T01:52:21.508Z,98478.72
2019-04-04T01:52:59.264Z,98469.63
2019-04-04T01:53:35.095Z,98477.05
2019-04-04T01:54:10.523Z,98472.82
2019-04-04T01:54:46.498Z,98465.34
2019-04-04T01:55:21.922Z,98475.98
2019-04-04T01:55:57.325Z,98469.64
2019-04-04T01:56:32.743Z,98462.84
2019-04-04T01:57:08.820Z,98466.92
2019-04-04T01:57:44.227Z,98462.78
2019-04-04T01:58:19.712Z,98462.78
2019-04-04T01:58:55.130Z,98466.17
2019-04-04T01:59:30.551Z,98453.53
2019-04-04T02:00:06.849Z,98453.53
2019-04-04T02:00:43.982Z,98457.11
2019-04-04T02:01:19.471Z,98455.38
2019-04-04T02:01:54.915Z,98445.08
2019-04-04T02:02:30.443Z,98445.08
2019-04-04T02:03:05.879Z,98444.69
2019-04-04T02:03:41.501Z,98444.69
2019-04-04T02:04:17.010Z,98450.41
2019-04-04T02:04:55.548Z,98439.67
2019-04-04T02:05:29.940Z,98448.08
2019-04-04T02:06:05.500Z,98448.31
2019-04-04T02:06:41.298Z,98450.08
2019-04-04T02:07:16.725Z,98452.64
2019-04-04T02:07:52.153Z,98458.66
2019-04-04T02:08:27.591Z,98463.13
2019-04-04T02:09:04.906Z,98463.13
2019-04-04T02:09:43.228Z,98466.36
2019-04-04T02:10:17.884Z,98470.98
2019-04-04T02:10:53.290Z,98478.20
2019-04-04T02:11:28.735Z,98483.83
2019-04-04T02:12:07.512Z,98479.61
2019-04-04T02:12:41.647Z,98483.67
2019-04-04T02:13:17.075Z,98489.98
2019-04-04T02:13:52.525Z,98486.42
2019-04-04T02:14:28.312Z,98491.83
2019-04-04T02:15:03.987Z,98488.64
2019-04-04T02:15:39.433Z,98491.94
2019-04-04T02:16:17.075Z,98488.81
2019-04-04T02:16:52.149Z,98491.05
2019-04-04T02:17:27.672Z,98495.11
2019-04-04T02:18:03.087Z,98485.69
2019-04-04T02:18:38.793Z,98485.69
2019-04-04T02:19:14.253Z,98478.83
2019-04-04T02:19:49.700Z,98476.45
2019-04-04T02:20:26.977Z,98476.45
2019-04-04T02:21:02.242Z,98473.38
2019-04-04T02:21:37.670Z,98477.10
2019-04-04T02:22:13.146Z,98467.91
2019-04-04T02:22:48.592Z,98472.20
2019-04-04T02:23:24.149Z,98476.27
2019-04-04T02:24:01.299Z,98472.22
2019-04-04T02:24:36.750Z,98472.16
2019-04-04T02:25:12.455Z,98472.16
2019-04-04T02:25:47.916Z,98475.94
2019-04-04T02:26:23.369Z,98467.80
2019-04-04T02:26:58.970Z,98471.77
2019-04-04T02:27:37.626Z,98470.54
2019-04-04T02:28:11.690Z,98470.47
2019-04-04T02:28:47.139Z,98474.80
2019-04-04T02:29:22.989Z,98473.56
2019-04-04T02:29:58.674Z,98472.52
2019-04-04T02:30:34.082Z,98474.31
2019-04-04T02:31:09.695Z,98472.39
2019-04-04T02:31:48.131Z,98469.78
2019-04-04T02:32:26.589Z,98463.92
2019-04-04T02:33:00.857Z,98462.81
2019-04-04T02:33:36.365Z,98462.81
2019-04-04T02:34:11.826Z,98464.73
2019-04-04T02:34:47.337Z,98453.53
2019-04-04T02:35:22.866Z,98438.31
2019-04-04T02:35:58.298Z,98431.30
2019-04-04T02:36:33.691Z,98417.80
2019-04-04T02:37:09.121Z,98414.79
2019-04-04T02:37:44.951Z,98412.77
2019-04-04T02:38:20.385Z,98414.52
2019-04-04T02:39:10.550Z,98414.52
2019-04-04T02:39:45.954Z,98426.46
2019-04-04T02:40:21.769Z,98432.19
2019-04-04T02:40:57.479Z,98432.19
2019-04-04T02:41:32.938Z,98433.77
2019-04-04T02:42:08.761Z,98430.97
2019-04-04T02:42:44.210Z,98430.25
2019-04-04T02:43:19.661Z,98421.15
2019-04-04T02:43:55.080Z,98409.24
2019-04-04T02:44:32.214Z,98409.24
2019-04-04T02:45:08.003Z,98423.11
2019-04-04T02:45:43.513Z,98421.53
2019-04-04T02:46:18.925Z,98425.22
2019-04-04T02:46:54.685Z,98425.22
2019-04-04T02:47:30.115Z,98430.35
2019-04-04T02:48:05.561Z,98428.45
2019-04-04T02:48:41.017Z,98430.13
2019-04-04T02:49:16.466Z,98427.95
2019-04-04T02:49:51.927Z,98437.66
2019-04-04T02:50:27.347Z,98433.58
2019-04-04T02:51:07.008Z,98436.47
2019-04-04T02:51:41.081Z,98436.47
2019-04-04T02:52:16.873Z,98444.39
2019-04-04T02:52:52.299Z,98445.45
2019-04-04T02:53:27.735Z,98446.29
2019-04-04T02:54:03.206Z,98438.58
2019-04-04T02:54:39.090Z,98438.58
2019-04-04T02:55:14.510Z,98435.05
2019-04-04T02:55:50.898Z,98435.05
2019-04-04T02:56:26.352Z,98439.73
2019-04-04T02:57:01.778Z,98436.52
2019-04-04T02:57:40.994Z,98440.38
2019-04-04T02:58:15.364Z,98440.38
2019-04-04T02:58:51.315Z,98437.52
2019-04-04T02:59:26.838Z,98441.19
2019-04-04T03:00:02.317Z,98441.41
2019-04-04T03:00:37.775Z,98436.73
2019-04-04T03:01:13.630Z,98428.36
2019-04-04T03:01:49.064Z,98423.16
2019-04-04T03:02:24.494Z,98422.48
2019-04-04T03:02:59.912Z,98431.11
2019-04-04T03:03:35.357Z,98431.11
2019-04-04T03:04:13.485Z,98426.48
2019-04-04T03:04:48.248Z,98428.45
2019-04-04T03:05:23.670Z,98431.95
2019-04-04T03:05:59.329Z,98426.30
2019-04-04T03:06:35.058Z,98426.30
2019-04-04T03:07:10.828Z,98435.84
2019-04-04T03:07:46.361Z,98435.84
2019-04-04T03:08:22.377Z,98439.84
2019-04-04T03:08:57.798Z,98439.84
2019-04-04T03:09:33.326Z,98441.14
2019-04-04T03:10:08.846Z,98430.61
2019-04-04T03:10:47.708Z,98446.29
2019-04-04T03:11:22.776Z,98438.44
2019-04-04T03:11:58.684Z,98436.42
2019-04-04T03:12:34.155Z,98425.16
2019-04-04T03:13:09.565Z,98423.60
2019-04-04T03:13:45.098Z,98423.60
2019-04-04T03:14:20.504Z,98422.52
2019-04-04T03:14:55.947Z,98419.66
2019-04-04T03:15:31.370Z,98417.73
2019-04-04T03:16:07.163Z,98420.89
2019-04-04T03:16:42.661Z,98422.91
2019-04-04T03:17:18.101Z,98422.91
2019-04-04T03:17:53.524Z,98417.73
2019-04-04T03:18:28.966Z,98429.17
2019-04-04T03:19:04.383Z,98429.17
2019-04-04T03:19:40.709Z,98426.61
2019-04-04T03:20:17.651Z,98426.61
2019-04-04T03:20:53.241Z,98426.55
2019-04-04T03:21:28.649Z,98428.66
2019-04-04T03:22:04.082Z,98432.02
2019-04-04T03:22:39.510Z,98434.36
2019-04-04T03:23:14.974Z,98434.36
2019-04-04T03:23:50.475Z,98436.69
2019-04-04T03:24:25.885Z,98439.27
2019-04-04T03:25:01.620Z,98444.17
2019-04-04T03:25:37.743Z,98444.17
2019-04-04T03:26:13.137Z,98438.70
2019-04-04T03:26:52.212Z,98439.98
2019-04-04T03:27:26.975Z,98437.05
2019-04-04T03:28:02.733Z,98442.02
2019-04-04T03:28:38.127Z,98436.88
2019-04-04T03:29:13.572Z,98441.30
2019-04-04T03:29:49.064Z,98442.20
2019-04-04T03:30:24.503Z,98447.33
2019-04-04T03:31:02.804Z,98434.41
2019-04-04T03:31:39.051Z,98434.41
2019-04-04T03:32:16.731Z,98432.30
2019-04-04T03:32:54.376Z,98434.12
2019-04-04T03:33:32.077Z,98435.20
2019-04-04T03:34:10.950Z,98435.20
2019-04-04T03:34:48.612Z,98434.59
2019-04-04T03:35:25.689Z,98428.58
2019-04-04T03:36:00.937Z,98428.66
2019-04-04T03:36:34.744Z,98428.66
2019-04-04T03:37:12.373Z,98429.95
2019-04-04T03:37:47.334Z,98423.98
2019-04-04T03:38:22.742Z,98434.69
2019-04-04T03:38:58.186Z,98434.69
2019-04-04T03:39:33.605Z,98430.02
2019-04-04T03:40:09.706Z,98423.50
2019-04-04T03:40:45.160Z,98436.02
2019-04-04T03:41:20.581Z,98436.02
2019-04-04T03:41:56.011Z,98426.55
2019-04-04T03:42:31.692Z,98426.55
2019-04-04T03:43:07.146Z,98428.66
2019-04-04T03:43:42.670Z,98428.93
2019-04-04T03:44:19.837Z,98418.64
2019-04-04T03:44:55.630Z,98409.66
2019-04-04T03:45:31.064Z,98407.25
2019-04-04T03:46:06.896Z,98407.25
2019-04-04T03:46:42.351Z,98401.48
2019-04-04T03:47:17.803Z,98393.80
2019-04-04T03:47:53.893Z,98393.02
2019-04-04T03:48:29.301Z,98391.23
2019-04-04T03:49:04.713Z,98387.38
2019-04-04T03:49:40.159Z,98386.71
2019-04-04T03:50:15.666Z,98385.94
2019-04-04T03:50:51.103Z,98370.01
2019-04-04T03:51:26.527Z,98375.04
2019-04-04T03:52:02.330Z,98375.04
2019-04-04T03:52:37.742Z,98370.91
2019-04-04T03:53:16.353Z,98367.12
2019-04-04T03:53:52.784Z,98358.73
2019-04-04T03:54:28.593Z,98357.73
2019-04-04T03:55:04.409Z,98349.17
2019-04-04T03:55:39.849Z,98353.15
2019-04-04T03:56:15.883Z,98345.88
2019-04-04T03:56:51.297Z,98330.33
2019-04-04T03:57:26.789Z,98330.33
2019-04-04T03:58:02.551Z,98328.21
2019-04-04T03:58:37.939Z,98307.73
2019-04-04T03:59:13.843Z,98325.02
2019-04-04T03:59:49.294Z,98324.09
2019-04-04T04:00:27.820Z,98324.09
2019-04-04T04:01:03.237Z,98320.70
2019-04-04T04:01:38.703Z,98321.51
2019-04-04T04:02:17.907Z,98321.51
2019-04-04T04:02:51.271Z,98313.00
2019-04-04T04:03:26.694Z,98322.73
2019-04-04T04:04:02.110Z,98322.73
2019-04-04T04:04:37.602Z,98322.95
2019-04-04T04:05:26.696Z,98325.88
2019-04-04T04:06:02.512Z,98332.06
2019-04-04T04:06:41.536Z,98346.13
2019-04-04T04:07:15.431Z,98358.28
2019-04-04T04:07:51.472Z,98364.04
2019-04-04T04:08:26.881Z,98370.67
2019-04-04T04:09:02.311Z,98369.39
2019-04-04T04:09:37.707Z,98381.90
2019-04-04T04:10:13.710Z,98378.24
2019-04-04T04:10:49.154Z,98383.24
2019-04-04T04:11:24.593Z,98387.96
2019-04-04T04:12:01.850Z,98389.14
2019-04-04T04:12:37.277Z,98389.14
2019-04-04T04:13:16.134Z,98392.80
2019-04-04T04:13:50.148Z,98386.55
2019-04-04T04:14:26.029Z,98388.66
2019-04-04T04:15:01.470Z,98385.97
2019-04-04T04:15:36.976Z,98383.86
2019-04-04T04:16:12.431Z,98375.01
2019-04-04T04:16:47.957Z,98375.01
2019-04-04T04:17:23.387Z,98370.87
2019-04-04T04:17:58.833Z,98371.31
2019-04-04T04:18:34.248Z,98358.14
2019-04-04T04:19:09.775Z,98356.67
2019-04-04T04:19:45.178Z,98354.33
2019-04-04T04:20:20.614Z,98341.41
2019-04-04T04:20:56.046Z,98333.28
2019-04-04T04:21:31.466Z,98333.28
2019-04-04T04:22:06.896Z,98334.49
2019-04-04T04:22:42.346Z,98327.86
2019-04-04T04:23:17.801Z,98327.86
2019-04-04T04:23:56.453Z,98326.98
2019-04-04T04:24:30.547Z,98331.94
2019-04-04T04:25:05.996Z,98327.17
2019-04-04T04:25:44.625Z,98326.13
2019-04-04T04:26:20.067Z,98326.13
2019-04-04T04:26:55.482Z,98333.14
2019-04-04T04:27:30.909Z,98334.38
2019-04-04T04:28:06.308Z,98334.38
2019-04-04T04:28:42.388Z,98331.87
2019-04-04T04:29:17.834Z,98331.87
2019-04-04T04:29:53.238Z,98331.05
2019-04-04T04:30:28.649Z,98327.20
2019-04-04T04:31:04.427Z,98334.27
2019-04-04T04:31:40.177Z,98337.39
2019-04-04T04:32:15.916Z,98335.47
2019-04-04T04:32:55.864Z,98335.47
2019-04-04T04:33:29.289Z,98339.63
2019-04-04T04:34:05.465Z,98341.17
2019-04-04T04:34:41.114Z,98341.17
2019-04-04T04:35:16.532Z,98344.70
2019-04-04T04:35:52.061Z,98343.48
2019-04-04T04:36:27.481Z,98339.87
2019-04-04T04:37:02.908Z,98342.81
2019-04-04T04:37:38.363Z,98344.48
2019-04-04T04:38:13.812Z,98346.73
2019-04-04T04:38:49.306Z,98351.54
2019-04-04T04:39:24.716Z,98348.02
2019-04-04T04:40:00.137Z,98348.02
2019-04-04T04:40:35.681Z,98348.23
2019-04-04T04:41:11.155Z,98349.14
2019-04-04T04:41:47.116Z,98355.19
2019-04-04T04:42:26.179Z,98355.19
2019-04-04T04:43:01.022Z,98358.49
2019-04-04T04:43:36.584Z,98349.77
2019-04-04T04:44:12.022Z,98349.77
2019-04-04T04:44:47.453Z,98355.72
2019-04-04T04:45:22.984Z,98352.00
2019-04-04T04:45:58.394Z,98350.72
2019-04-04T04:46:33.917Z,98350.12
2019-04-04T04:47:09.353Z,98353.28
2019-04-04T04:47:44.802Z,98346.27
2019-04-04T04:48:20.315Z,98349.75
2019-04-04T04:48:55.785Z,98347.70
2019-04-04T04:49:31.155Z,98346.48
2019-04-04T04:50:09.698Z,98352.40
2019-04-04T04:50:43.800Z,98346.59
2019-04-04T04:51:19.269Z,98346.59
2019-04-04T04:51:54.666Z,98343.72
2019-04-04T04:52:30.120Z,98335.61
2019-04-04T04:53:05.540Z,98335.61
2019-04-04T04:53:40.962Z,98346.55
2019-04-04T04:54:16.389Z,98347.51
2019-04-04T04:54:54.310Z,98347.51
2019-04-04T04:55:29.638Z,98351.35
2019-04-04T04:56:05.364Z,98347.51
2019-04-04T04:56:40.826Z,98353.72
2019-04-04T04:57:28.754Z,98353.53
2019-04-04T04:57:56.104Z,98346.06
2019-04-04T04:58:30.515Z,98354.53
2019-04-04T04:59:05.931Z,98343.62
2019-04-04T04:59:44.361Z,98343.62
2019-04-04T05:00:18.584Z,98342.73
2019-04-04T05:00:54.352Z,98339.84
2019-04-04T05:01:30.106Z,98339.84
2019-04-04T05:02:05.725Z,98323.17
2019-04-04T05:02:41.275Z,98323.39
2019-04-04T05:03:17.105Z,98330.80
2019-04-04T05:03:54.209Z,98325.42
2019-04-04T05:04:29.675Z,98325.42
2019-04-04T05:05:05.437Z,98320.97
2019-04-04T05:05:40.964Z,98325.52
2019-04-04T05:06:16.386Z,98325.52
2019-04-04T05:06:51.828Z,98325.88
2019-04-04T05:07:27.267Z,98325.42
2019-04-04T05:08:02.693Z,98329.14
2019-04-04T05:08:39.041Z,98329.14
2019-04-04T05:09:15.296Z,98331.25
2019-04-04T05:09:50.698Z,98323.94
2019-04-04T05:10:26.123Z,98326.34
2019-04-04T05:11:01.545Z,98334.89
2019-04-04T05:11:37.030Z,98332.33
2019-04-04T05:12:12.476Z,98331.94
2019-04-04T05:12:47.939Z,98338.73
2019-04-04T05:13:25.102Z,98338.73
2019-04-04T05:14:00.455Z,98338.36
2019-04-04T05:14:36.249Z,98328.27
2019-04-04T05:15:11.690Z,98324.34
2019-04-04T05:15:47.138Z,98326.09
2019-04-04T05:16:22.560Z,98326.41
2019-04-04T05:16:57.990Z,98326.41
2019-04-04T05:17:33.398Z,98330.27
2019-04-04T05:18:11.698Z,98324.16
2019-04-04T05:18:47.738Z,98329.67
2019-04-04T05:19:23.076Z,98327.62
2019-04-04T05:19:58.478Z,98345.67
2019-04-04T05:20:34.211Z,98345.67
2019-04-04T05:21:09.796Z,98336.76
2019-04-04T05:21:45.610Z,98343.12
2019-04-04T05:22:21.032Z,98343.12
2019-04-04T05:22:56.933Z,98345.09
2019-04-04T05:23:32.325Z,98347.42
2019-04-04T05:24:07.804Z,98347.42
2019-04-04T05:24:43.616Z,98341.77
2019-04-04T05:25:19.040Z,98343.20
2019-04-04T05:25:54.577Z,98341.98
2019-04-04T05:26:30.015Z,98341.98
2019-04-04T05:27:05.998Z,98342.15
2019-04-04T05:27:42.187Z,98340.17
2019-04-04T05:28:17.682Z,98347.87
2019-04-04T05:28:53.127Z,98346.20
2019-04-04T05:29:28.556Z,98346.20
2019-04-04T05:30:04.635Z,98350.69
2019-04-04T05:30:40.038Z,98350.69
2019-04-04T05:31:16.130Z,98347.28
2019-04-04T05:31:52.716Z,98347.28
2019-04-04T05:32:28.143Z,98339.41
2019-04-04T05:33:03.586Z,98339.41
2019-04-04T05:33:39.377Z,98335.56
2019-04-04T05:34:14.972Z,98345.38
2019-04-04T05:34:50.398Z,98340.42
2019-04-04T05:35:25.801Z,98340.42
2019-04-04T05:36:01.234Z,98343.58
2019-04-04T05:36:37.037Z,98331.27
2019-04-04T05:37:12.735Z,98331.27
2019-04-04T05:37:48.166Z,98335.95
2019-04-04T05:38:23.588Z,98335.95
2019-04-04T05:38:59.403Z,98329.02
2019-04-04T05:39:35.173Z,98329.02
2019-04-04T05:40:11.249Z,98325.55
2019-04-04T05:40:46.998Z,98333.91
2019-04-04T05:41:22.557Z,98333.91
2019-04-04T05:42:00.386Z,98329.98
2019-04-04T05:42:36.749Z,98323.51
2019-04-04T05:43:14.868Z,98321.70
2019-04-04T05:43:49.323Z,98313.23
2019-04-04T05:44:25.380Z,98318.83
2019-04-04T05:45:01.120Z,98316.26
2019-04-04T05:45:36.550Z,98316.19
2019-04-04T05:46:11.968Z,98313.83
2019-04-04T05:46:47.424Z,98313.97
2019-04-04T05:47:23.818Z,98313.97
2019-04-04T05:47:59.823Z,98317.23
2019-04-04T05:48:35.380Z,98321.84
2019-04-04T05:49:11.537Z,98317.92
2019-04-04T05:49:47.414Z,98332.56
2019-04-04T05:50:23.218Z,98335.34
2019-04-04T05:50:58.678Z,98334.13
2019-04-04T05:51:36.192Z,98334.13
2019-04-04T05:52:11.601Z,98345.30
2019-04-04T05:52:47.052Z,98339.44
2019-04-04T05:53:22.921Z,98336.31
2019-04-04T05:53:58.342Z,98336.31
2019-04-04T05:54:33.754Z,98342.52
2019-04-04T05:55:10.926Z,98342.52
2019-04-04T05:55:46.828Z,98338.73
2019-04-04T05:56:24.298Z,98341.02
2019-04-04T05:56:59.402Z,98341.02
2019-04-04T05:57:35.222Z,98335.58
2019-04-04T05:58:10.798Z,98335.58
2019-04-04T05:58:46.274Z,98343.34
2019-04-04T05:59:23.767Z,98339.95
2019-04-04T05:59:58.976Z,98330.89
2019-04-04T06:00:35.017Z,98337.63
2019-04-04T06:01:11.433Z,98328.78
2019-04-04T06:01:46.937Z,98328.78
2019-04-04T06:02:22.398Z,98334.66
2019-04-04T06:02:57.856Z,98334.66
2019-04-04T06:03:33.696Z,98335.56
2019-04-04T06:04:09.141Z,98335.56
2019-04-04T06:04:44.626Z,98329.75
2019-04-04T06:05:20.073Z,98326.66
2019-04-04T06:05:55.476Z,98333.70
2019-04-04T06:06:33.473Z,98331.48
2019-04-04T06:07:08.755Z,98330.38
2019-04-04T06:07:44.242Z,98330.38
2019-04-04T06:08:20.092Z,98322.50
2019-04-04T06:08:55.558Z,98316.47
2019-04-04T06:09:30.973Z,98318.66
2019-04-04T06:10:06.816Z,98331.21
2019-04-04T06:10:42.367Z,98329.09
2019-04-04T06:11:20.984Z,98329.09
2019-04-04T06:11:55.808Z,98333.47
2019-04-04T06:12:31.862Z,98322.50
2019-04-04T06:13:07.292Z,98325.38
2019-04-04T06:13:42.750Z,98333.53
2019-04-04T06:14:20.586Z,98333.53
2019-04-04T06:14:55.531Z,98334.98
2019-04-04T06:15:32.187Z,98334.36
2019-04-04T06:16:08.168Z,98345.38
2019-04-04T06:16:44.047Z,98345.38
2019-04-04T06:17:19.495Z,98345.31
2019-04-04T06:17:55.266Z,98343.34
2019-04-04T06:18:30.692Z,98343.06
2019-04-04T06:19:06.118Z,98343.06
2019-04-04T06:19:44.405Z,98338.50
2019-04-04T06:20:19.042Z,98338.50
2019-04-04T06:20:54.426Z,98342.15
2019-04-04T06:21:29.949Z,98338.89
2019-04-04T06:22:05.378Z,98338.89
2019-04-04T06:22:40.873Z,98337.75
2019-04-04T06:23:16.544Z,98327.36
2019-04-04T06:23:51.965Z,98333.60
2019-04-04T06:24:27.973Z,98333.25
2019-04-04T06:25:03.848Z,98333.25
2019-04-04T06:25:39.277Z,98329.30
2019-04-04T06:26:15.045Z,98327.42
2019-04-04T06:26:50.459Z,98326.59
2019-04-04T06:27:25.909Z,98326.59
2019-04-04T06:28:01.639Z,98330.59
2019-04-04T06:28:37.054Z,98321.67
2019-04-04T06:29:12.974Z,98327.70
2019-04-04T06:29:48.431Z,98321.47
2019-04-04T06:30:23.960Z,98321.47
2019-04-04T06:31:00.872Z,98325.17
2019-04-04T06:31:36.352Z,98325.17
2019-04-04T06:32:11.858Z,98335.51
2019-04-04T06:32:47.704Z,98329.09
2019-04-04T06:33:23.143Z,98323.19
2019-04-04T06:33:58.557Z,98325.77
2019-04-04T06:34:34.267Z,98331.20
2019-04-04T06:35:10.081Z,98337.00
2019-04-04T06:35:47.855Z,98337.00
2019-04-04T06:36:22.643Z,98338.84
2019-04-04T06:36:58.093Z,98342.31
2019-04-04T06:37:34.456Z,98342.31
2019-04-04T06:38:10.307Z,98344.40
2019-04-04T06:38:45.763Z,98339.44
2019-04-04T06:39:23.028Z,98342.59
2019-04-04T06:39:58.976Z,98355.15
2019-04-04T06:40:35.285Z,98360.41
2019-04-04T06:41:10.893Z,98370.61
2019-04-04T06:41:46.451Z,98357.91
2019-04-04T06:42:22.181Z,98352.78
2019-04-04T06:42:57.591Z,98352.78
2019-04-04T06:43:33.062Z,98359.65
2019-04-04T06:44:08.563Z,98355.23
2019-04-04T06:44:44.458Z,98352.85
2019-04-04T06:45:20.016Z,98352.85
2019-04-04T06:45:55.438Z,98348.94
2019-04-04T06:46:30.868Z,98348.94
2019-04-04T06:47:06.331Z,98348.63
2019-04-04T06:47:41.786Z,98343.19
2019-04-04T06:48:17.201Z,98334.37
2019-04-04T06:48:52.627Z,98327.42
2019-04-04T06:49:28.924Z,98327.42
2019-04-04T06:50:08.180Z,98326.51
2019-04-04T06:50:43.159Z,98326.88
2019-04-04T06:51:18.612Z,98331.86
2019-04-04T06:51:54.033Z,98338.34
2019-04-04T06:52:29.494Z,98338.34
2019-04-04T06:53:04.921Z,98341.14
2019-04-04T06:53:40.454Z,98332.77
2019-04-04T06:54:15.929Z,98332.77
2019-04-04T06:54:51.611Z,98330.36
2019-04-04T06:55:28.768Z,98330.28
2019-04-04T06:56:04.191Z,98330.05
2019-04-04T06:56:39.611Z,98330.05
2019-04-04T06:57:15.121Z,98333.07
2019-04-04T06:57:51.405Z,98340.42
2019-04-04T06:58:27.209Z,98345.45
2019-04-04T06:59:02.972Z,98323.50
2019-04-04T06:59:38.791Z,98336.48
2019-04-04T07:00:15.988Z,98337.69
2019-04-04T07:00:51.359Z,98334.28
2019-04-04T07:01:27.114Z,98336.62